createdAt,value
2023-04-20T00:01:57.255Z,22.97
2023-04-20T00:04:27.187Z,25.20
2023-04-20T00:06:57.114Z,21.60
2023-04-20T00:09:25.562Z,28.20
2023-04-20T00:11:54.049Z,21.43
2023-04-20T00:14:22.530Z,23.10
2023-04-20T00:16:51.053Z,23.03
2023-04-20T00:19:21.230Z,26.53
2023-04-20T00:21:51.429Z,23.47
2023-04-20T00:24:19.899Z,28.43
2023-04-20T00:26:48.376Z,22.40
2023-04-20T00:29:17.272Z,24.67
2023-04-20T00:31:46.064Z,29.30
2023-04-20T00:34:14.616Z,23.50
2023-04-20T00:36:43.417Z,22.97
2023-04-20T00:39:13.655Z,19.87
2023-04-20T00:41:42.402Z,21.97
2023-04-20T00:44:14.149Z,22.47
2023-04-20T00:46:42.998Z,22.30
2023-04-20T00:49:12.440Z,24.33
2023-04-20T00:51:41.628Z,22.87
2023-04-20T00:54:10.354Z,23.70
2023-04-20T00:56:40.634Z,20.23
2023-04-20T00:59:09.453Z,24.40
2023-04-20T01:01:38.150Z,19.47
2023-04-20T01:04:08.054Z,20.77
2023-04-20T01:06:36.741Z,20.10
2023-04-20T01:09:06.006Z,22.57
2023-04-20T01:11:34.674Z,20.37
2023-04-20T01:14:04.699Z,21.63
2023-04-20T01:16:35.117Z,22.03
2023-04-20T01:19:03.950Z,21.23
2023-04-20T01:21:32.742Z,23.17
2023-04-20T01:24:02.732Z,19.47
2023-04-20T01:26:31.273Z,18.50
2023-04-20T01:29:00.234Z,25.37
2023-04-20T01:31:28.927Z,20.93
2023-04-20T01:33:57.677Z,22.20
2023-04-20T01:36:27.146Z,22.43
2023-04-20T01:38:55.857Z,24.90
2023-04-20T01:41:26.041Z,25.10
2023-04-20T01:43:54.669Z,25.03
2023-04-20T01:46:23.288Z,26.30
2023-04-20T01:48:51.861Z,27.10
2023-04-20T01:51:20.489Z,26.50
2023-04-20T01:53:49.016Z,25.00
2023-04-20T01:56:17.620Z,27.63
2023-04-20T01:58:47.668Z,25.97
2023-04-20T02:01:16.392Z,26.43
2023-04-20T02:03:45.529Z,28.67
2023-04-20T02:06:14.284Z,27.73
2023-04-20T02:08:42.915Z,28.57
2023-04-20T02:11:11.651Z,26.53
2023-04-20T02:13:40.459Z,26.70
2023-04-20T02:16:11.006Z,27.87
2023-04-20T02:18:39.584Z,31.53
2023-04-20T02:21:08.555Z,27.80
2023-04-20T02:23:37.165Z,30.70
2023-04-20T02:26:05.984Z,27.20
2023-04-20T02:28:34.619Z,32.10
2023-04-20T02:31:03.376Z,27.07
2023-04-20T02:33:33.621Z,27.50
2023-04-20T02:36:02.379Z,32.23
2023-04-20T02:38:31.014Z,30.80
2023-04-20T02:41:00.972Z,26.53
2023-04-20T02:43:29.815Z,30.57
2023-04-20T02:45:58.424Z,28.10
2023-04-20T02:48:27.055Z,30.17
2023-04-20T02:50:58.536Z,27.03
2023-04-20T02:53:27.282Z,32.03
2023-04-20T02:55:55.888Z,28.77
2023-04-20T02:58:24.563Z,36.33
2023-04-20T03:00:53.445Z,30.63
2023-04-20T03:03:22.177Z,31.33
2023-04-20T03:05:51.237Z,34.23
2023-04-20T03:08:21.504Z,36.07
2023-04-20T03:10:50.182Z,34.83
2023-04-20T03:13:18.838Z,31.43
2023-04-20T03:15:47.508Z,31.50
2023-04-20T03:18:16.163Z,38.20
2023-04-20T03:20:45.041Z,35.60
2023-04-20T03:23:13.799Z,32.37
2023-04-20T03:25:46.544Z,37.57
2023-04-20T03:28:15.148Z,35.27
2023-04-20T03:30:44.064Z,32.43
2023-04-20T03:33:12.754Z,30.73
2023-04-20T03:35:43.242Z,29.53
2023-04-20T03:38:11.916Z,29.13
2023-04-20T03:40:40.612Z,28.27
2023-04-20T03:43:11.430Z,27.83
2023-04-20T03:45:40.095Z,27.57
2023-04-20T03:48:09.244Z,33.00
2023-04-20T03:50:37.848Z,28.00
2023-04-20T03:53:06.528Z,31.60
2023-04-20T03:55:35.286Z,33.20
2023-04-20T03:58:03.985Z,30.93
2023-04-20T04:00:34.268Z,30.63
2023-04-20T04:03:02.794Z,31.50
2023-04-20T04:05:31.363Z,31.63
2023-04-20T04:07:59.615Z,33.67
2023-04-20T04:10:28.648Z,30.77
2023-04-20T04:12:57.028Z,28.97
2023-04-20T04:15:25.344Z,28.87
2023-04-20T04:17:57.647Z,33.93
2023-04-20T04:20:26.009Z,32.63
2023-04-20T04:22:54.347Z,34.93
2023-04-20T04:25:23.333Z,31.13
2023-04-20T04:27:51.708Z,33.37
2023-04-20T04:30:21.020Z,32.10
2023-04-20T04:32:50.292Z,30.90
2023-04-20T04:35:20.235Z,31.93
2023-04-20T04:37:48.737Z,25.13
2023-04-20T04:40:18.384Z,29.87
2023-04-20T04:42:47.683Z,28.27
2023-04-20T04:45:16.698Z,29.23
2023-04-20T04:47:45.347Z,25.27
2023-04-20T04:50:13.704Z,33.30
2023-04-20T04:52:43.473Z,29.30
2023-04-20T04:55:12.157Z,27.17
2023-04-20T04:57:41.373Z,25.83
2023-04-20T05:00:12.559Z,26.50
2023-04-20T05:02:41.008Z,27.47
2023-04-20T05:05:10.307Z,28.40
2023-04-20T05:07:40.273Z,27.50
2023-04-20T05:10:10.631Z,29.43
2023-04-20T05:12:39.508Z,28.60
2023-04-20T05:15:09.130Z,28.90
2023-04-20T05:17:37.661Z,29.17
2023-04-20T05:20:07.476Z,26.87
2023-04-20T05:22:35.776Z,25.93
2023-04-20T05:25:04.230Z,26.10
2023-04-20T05:27:34.342Z,24.97
2023-04-20T05:30:13.126Z,26.87
2023-04-20T05:32:51.400Z,30.60
2023-04-20T05:35:20.626Z,24.50
2023-04-20T05:37:49.538Z,26.40
2023-04-20T05:40:17.911Z,27.50
2023-04-20T05:42:47.732Z,25.93
2023-04-20T05:45:16.236Z,25.03
2023-04-20T05:47:53.317Z,23.57
2023-04-20T05:50:22.554Z,25.37
2023-04-20T05:52:51.213Z,26.20
2023-04-20T05:55:22.235Z,20.73
2023-04-20T05:57:52.980Z,22.07
2023-04-20T06:00:25.773Z,23.63
2023-04-20T06:02:55.350Z,23.87
2023-04-20T06:05:24.351Z,21.27
2023-04-20T06:07:53.223Z,23.33
2023-04-20T06:10:21.942Z,23.33
2023-04-20T06:12:50.770Z,22.40
2023-04-20T06:15:20.752Z,23.77
2023-04-20T06:17:49.235Z,58.00
2023-04-20T06:20:17.777Z,42.97
2023-04-20T06:22:46.522Z,41.90
2023-04-20T06:25:15.822Z,26.13
2023-04-20T06:27:44.498Z,22.13
2023-04-20T06:30:13.970Z,22.20
2023-04-20T06:32:43.829Z,19.93
2023-04-20T06:35:12.435Z,21.63
2023-04-20T06:37:40.893Z,22.00
2023-04-20T06:40:09.942Z,24.77
2023-04-20T06:42:38.372Z,26.03
2023-04-20T06:45:07.896Z,23.40
2023-04-20T06:47:37.157Z,19.90
2023-04-20T06:50:10.072Z,21.63
2023-04-20T06:52:39.467Z,21.33
2023-04-20T06:55:08.282Z,21.33
2023-04-20T06:57:38.597Z,22.17
2023-04-20T07:00:09.936Z,22.43
2023-04-20T07:02:45.708Z,22.33
2023-04-20T07:05:16.094Z,19.57
2023-04-20T07:07:45.361Z,20.70
2023-04-20T07:10:15.455Z,20.73
2023-04-20T07:12:45.101Z,18.63
2023-04-20T07:15:13.890Z,19.33
2023-04-20T07:17:42.452Z,19.90
2023-04-20T07:20:11.556Z,18.03
2023-04-20T07:22:41.818Z,19.70
2023-04-20T07:25:11.250Z,18.33
2023-04-20T07:27:41.552Z,20.77
2023-04-20T07:30:11.474Z,18.20
2023-04-20T07:32:41.238Z,20.13
2023-04-20T07:35:10.503Z,18.80
2023-04-20T07:37:40.778Z,18.70
2023-04-20T07:40:10.835Z,19.13
2023-04-20T07:42:39.272Z,17.20
2023-04-20T07:45:08.782Z,17.30
2023-04-20T07:47:38.016Z,16.77
2023-04-20T07:50:07.924Z,20.00
2023-04-20T07:52:36.363Z,15.30
2023-04-20T07:55:08.285Z,15.33
2023-04-20T07:57:36.979Z,17.97
2023-04-20T08:00:07.191Z,17.57
2023-04-20T08:02:35.702Z,17.10
2023-04-20T08:05:04.667Z,19.83
2023-04-20T08:07:33.558Z,18.00
2023-04-20T08:10:02.997Z,19.33
2023-04-20T08:12:32.832Z,19.57
2023-04-20T08:15:04.560Z,20.20
2023-04-20T08:20:02.575Z,18.87
2023-04-20T08:22:31.054Z,14.53
2023-04-20T08:24:59.455Z,13.67
2023-04-20T08:27:29.840Z,11.73
2023-04-20T08:29:59.676Z,11.27
2023-04-20T08:32:28.038Z,14.70
2023-04-20T08:34:57.364Z,13.57
2023-04-20T08:37:26.113Z,12.97
2023-04-20T08:39:54.552Z,12.70
2023-04-20T08:42:22.869Z,14.43
2023-04-20T08:44:51.322Z,14.33
2023-04-20T08:47:22.402Z,14.90
2023-04-20T08:49:54.876Z,14.83
2023-04-20T08:52:23.287Z,12.07
2023-04-20T08:54:56.522Z,14.40
2023-04-20T08:57:26.102Z,14.30
2023-04-20T08:59:54.581Z,17.73
2023-04-20T09:02:24.484Z,16.73
2023-04-20T09:05:03.024Z,17.00
2023-04-20T09:07:31.590Z,18.80
2023-04-20T09:10:01.419Z,17.83
2023-04-20T09:12:29.855Z,19.80
2023-04-20T09:14:58.120Z,20.50
2023-04-20T09:17:35.194Z,22.17
2023-04-20T09:20:05.098Z,20.80
2023-04-20T09:22:34.537Z,20.57
2023-04-20T09:25:13.293Z,21.83
2023-04-20T09:27:41.621Z,21.67
2023-04-20T09:30:10.956Z,24.20
2023-04-20T09:32:40.801Z,22.87
2023-04-20T09:35:10.252Z,20.07
2023-04-20T09:37:48.947Z,20.70
2023-04-20T09:40:19.158Z,20.73
2023-04-20T09:42:49.658Z,19.97
2023-04-20T09:45:18.743Z,20.13
2023-04-20T09:47:49.977Z,19.17
2023-04-20T09:50:26.579Z,19.03
2023-04-20T09:52:56.268Z,17.87
2023-04-20T09:55:26.397Z,16.07
2023-04-20T09:57:56.043Z,14.07
2023-04-20T10:00:24.765Z,40.13
2023-04-20T10:02:54.718Z,28.43
2023-04-20T10:05:35.153Z,15.93
2023-04-20T10:08:03.941Z,13.07
2023-04-20T10:10:32.631Z,13.40
2023-04-20T10:13:02.007Z,13.37
2023-04-20T10:15:40.407Z,12.77
2023-04-20T10:18:21.128Z,12.50
2023-04-20T10:20:49.947Z,13.80
2023-04-20T10:23:20.028Z,14.47
2023-04-20T10:25:59.282Z,12.60
2023-04-20T10:28:39.755Z,12.33
2023-04-20T10:31:13.517Z,11.10
2023-04-20T10:33:52.808Z,14.00
2023-04-20T10:36:30.248Z,14.43
2023-04-20T10:38:59.108Z,12.87
2023-04-20T10:41:27.566Z,12.07
2023-04-20T10:43:56.153Z,12.23
2023-04-20T10:46:25.858Z,12.53
2023-04-20T10:48:56.886Z,12.47
2023-04-20T10:51:26.152Z,12.90
2023-04-20T10:54:06.303Z,12.27
2023-04-20T10:56:41.552Z,12.63
2023-04-20T10:59:11.524Z,11.77
2023-04-20T11:01:39.999Z,11.47
2023-04-20T11:04:10.728Z,12.60
2023-04-20T11:06:40.829Z,12.87
2023-04-20T11:09:20.122Z,12.97
2023-04-20T11:11:59.313Z,12.33
2023-04-20T11:14:27.935Z,12.33
2023-04-20T11:16:56.767Z,12.23
2023-04-20T11:19:28.225Z,13.50
2023-04-20T11:21:57.625Z,13.20
2023-04-20T11:24:27.428Z,12.77
2023-04-20T11:26:58.089Z,10.87
2023-04-20T11:29:34.142Z,14.23
2023-04-20T11:32:06.565Z,14.27
2023-04-20T11:34:38.191Z,12.90
2023-04-20T11:37:07.603Z,13.33
2023-04-20T11:39:36.267Z,13.67
2023-04-20T11:42:05.540Z,12.80
2023-04-20T11:44:37.204Z,13.43
2023-04-20T11:47:06.309Z,10.83
2023-04-20T11:49:36.505Z,15.80
2023-04-20T11:52:05.295Z,11.40
2023-04-20T11:54:35.209Z,15.27
2023-04-20T11:57:04.507Z,12.10
2023-04-20T11:59:32.860Z,13.60
2023-04-20T12:02:04.373Z,11.77
2023-04-20T12:04:34.569Z,13.73
2023-04-20T12:07:04.596Z,14.70
2023-04-20T12:09:36.190Z,14.37
2023-04-20T12:12:04.814Z,11.20
2023-04-20T12:14:34.690Z,15.07
2023-04-20T12:17:04.087Z,11.17
2023-04-20T12:19:32.778Z,12.27
2023-04-20T12:22:01.430Z,13.47
2023-04-20T12:24:31.217Z,15.17
2023-04-20T12:26:59.727Z,13.37
2023-04-20T12:29:28.154Z,13.00
2023-04-20T12:31:56.670Z,13.83
2023-04-20T12:34:25.328Z,13.40
2023-04-20T12:36:53.898Z,13.10
2023-04-20T12:39:22.468Z,12.13
2023-04-20T12:41:52.390Z,12.67
2023-04-20T12:44:21.169Z,13.00
2023-04-20T12:46:49.926Z,15.73
2023-04-20T12:49:18.756Z,11.93
2023-04-20T12:51:47.288Z,15.60
2023-04-20T12:54:15.972Z,13.60
2023-04-20T12:56:44.632Z,13.53
2023-04-20T12:59:14.452Z,12.67
2023-04-20T13:01:42.839Z,18.87
2023-04-20T13:04:11.545Z,13.57
2023-04-20T13:06:40.269Z,12.43
2023-04-20T13:09:09.432Z,15.33
2023-04-20T13:11:38.035Z,10.47
2023-04-20T13:14:06.588Z,15.10
2023-04-20T13:16:36.571Z,12.23
2023-04-20T13:19:05.314Z,14.70
2023-04-20T13:21:34.453Z,13.63
2023-04-20T13:24:03.035Z,13.97
2023-04-20T13:26:31.572Z,12.23
2023-04-20T13:29:00.172Z,15.77
2023-04-20T13:31:28.808Z,14.00
2023-04-20T13:33:58.708Z,18.33
2023-04-20T13:36:28.463Z,11.47
2023-04-20T13:38:57.575Z,15.80
2023-04-20T13:41:26.151Z,12.37
2023-04-20T13:43:54.622Z,13.07
2023-04-20T13:46:23.206Z,15.07
2023-04-20T13:48:51.785Z,14.03
2023-04-20T13:51:21.818Z,11.87
2023-04-20T13:53:50.307Z,13.03
2023-04-20T13:56:18.761Z,10.83
2023-04-20T13:58:47.326Z,16.87
2023-04-20T14:01:17.566Z,20.77
2023-04-20T14:03:46.326Z,13.40
2023-04-20T14:06:14.902Z,12.23
2023-04-20T14:08:44.782Z,16.50
2023-04-20T14:11:13.215Z,15.00
2023-04-20T14:13:41.687Z,15.40
2023-04-20T14:16:11.098Z,12.80
2023-04-20T14:18:39.576Z,15.33
2023-04-20T14:21:08.101Z,11.67
2023-04-20T14:23:36.598Z,14.83
2023-04-20T14:26:06.553Z,18.83
2023-04-20T14:28:36.093Z,12.00
2023-04-20T14:31:04.704Z,15.40
2023-04-20T14:33:33.306Z,13.30
2023-04-20T14:36:01.692Z,13.90
2023-04-20T14:38:30.059Z,14.37
2023-04-20T14:40:58.581Z,13.07
2023-04-20T14:43:28.358Z,13.57
2023-04-20T14:45:58.913Z,16.30
2023-04-20T14:48:27.882Z,13.60
2023-04-20T14:50:56.597Z,11.87
2023-04-20T14:53:25.252Z,11.90
2023-04-20T14:55:53.640Z,13.00
2023-04-20T14:58:22.021Z,12.67
2023-04-20T15:00:54.188Z,10.87
2023-04-20T15:03:22.954Z,13.70
2023-04-20T15:05:51.770Z,11.50
2023-04-20T15:08:20.214Z,16.80
2023-04-20T15:10:48.704Z,14.67
2023-04-20T15:13:17.170Z,8.63
2023-04-20T15:15:48.880Z,8.87
2023-04-20T15:18:19.528Z,10.07
2023-04-20T15:20:48.041Z,9.63
2023-04-20T15:23:16.417Z,10.27
2023-04-20T15:25:45.114Z,9.23
2023-04-20T15:28:15.926Z,10.67
2023-04-20T15:30:44.394Z,10.53
2023-04-20T15:33:12.921Z,9.80
2023-04-20T15:35:42.932Z,10.17
2023-04-20T15:38:11.394Z,8.13
2023-04-20T15:40:40.158Z,9.00
2023-04-20T15:43:08.605Z,10.13
2023-04-20T15:45:37.142Z,10.90
2023-04-20T15:48:06.422Z,8.83
2023-04-20T15:50:35.788Z,7.60
2023-04-20T15:53:05.628Z,10.83
2023-04-20T15:55:35.742Z,9.27
2023-04-20T15:58:04.167Z,7.60
2023-04-20T16:00:32.737Z,7.00
2023-04-20T16:03:02.203Z,9.27
2023-04-20T16:05:31.035Z,9.93
2023-04-20T16:07:59.472Z,6.87
2023-04-20T16:10:29.649Z,6.80
2023-04-20T16:12:58.337Z,8.80
2023-04-20T16:15:29.653Z,11.10
2023-04-20T16:18:00.104Z,6.70
2023-04-20T16:20:28.659Z,8.00
2023-04-20T16:22:57.258Z,8.97
2023-04-20T16:25:25.994Z,7.67
2023-04-20T16:27:56.094Z,8.53
2023-04-20T16:30:24.708Z,9.63
2023-04-20T16:32:53.306Z,8.20
2023-04-20T16:35:21.915Z,6.63
2023-04-20T16:37:50.208Z,10.20
2023-04-20T16:40:21.013Z,8.33
2023-04-20T16:42:49.376Z,9.53
2023-04-20T16:45:19.227Z,7.13
2023-04-20T16:47:47.893Z,8.30
2023-04-20T16:50:19.663Z,6.57
2023-04-20T16:52:48.341Z,8.80
2023-04-20T16:55:17.148Z,8.47
2023-04-20T16:57:45.591Z,6.93
2023-04-20T17:00:15.207Z,7.23
2023-04-20T17:02:45.174Z,6.70
2023-04-20T17:05:13.667Z,7.67
2023-04-20T17:07:41.979Z,11.60
2023-04-20T17:10:10.836Z,9.00
2023-04-20T17:12:41.665Z,9.47
2023-04-20T17:15:11.713Z,8.17
2023-04-20T17:17:40.253Z,6.40
2023-04-20T17:20:12.000Z,12.27
2023-04-20T17:22:40.336Z,8.73
2023-04-20T17:25:09.824Z,6.87
2023-04-20T17:27:38.169Z,9.17
2023-04-20T17:30:07.724Z,7.57
2023-04-20T17:32:36.199Z,8.77
2023-04-20T17:35:06.036Z,8.10
2023-04-20T17:37:36.637Z,11.33
2023-04-20T17:40:06.419Z,8.40
2023-04-20T17:42:34.861Z,8.57
2023-04-20T17:45:03.585Z,7.93
2023-04-20T17:47:32.837Z,8.57
2023-04-20T17:50:01.449Z,9.47
2023-04-20T17:52:29.929Z,8.57
2023-04-20T17:55:02.006Z,6.87
2023-04-20T17:57:30.624Z,10.13
2023-04-20T17:59:59.026Z,8.43
2023-04-20T18:02:27.605Z,8.67
2023-04-20T18:04:59.778Z,9.97
2023-04-20T18:07:28.537Z,21.60
2023-04-20T18:09:57.008Z,7.17
2023-04-20T18:12:26.907Z,11.97
2023-04-20T18:14:55.375Z,9.13
2023-04-20T18:17:23.703Z,31.00
2023-04-20T18:19:52.174Z,14.07
2023-04-20T18:22:20.678Z,12.37
2023-04-20T18:24:49.056Z,13.17
2023-04-20T18:27:17.419Z,10.00
2023-04-20T18:29:47.314Z,9.43
2023-04-20T18:32:18.091Z,11.90
2023-04-20T18:34:46.561Z,8.17
2023-04-20T18:37:15.772Z,8.43
2023-04-20T18:39:44.326Z,7.53
2023-04-20T18:42:12.707Z,10.30
2023-04-20T18:44:41.180Z,7.33
2023-04-20T18:47:11.042Z,10.37
2023-04-20T18:49:39.536Z,12.17
2023-04-20T18:52:07.990Z,10.07
2023-04-20T18:54:38.491Z,11.27
2023-04-20T18:57:07.053Z,11.50
2023-04-20T18:59:35.379Z,12.23
2023-04-20T19:02:03.731Z,10.07
2023-04-20T19:04:36.373Z,9.47
2023-04-20T19:07:04.743Z,9.03
2023-04-20T19:09:33.229Z,11.13
2023-04-20T19:12:01.614Z,10.07
2023-04-20T19:14:29.924Z,12.20
2023-04-20T19:16:58.465Z,10.27
2023-04-20T19:19:27.055Z,11.83
2023-04-20T19:21:57.832Z,9.43
2023-04-20T19:24:26.211Z,9.53
2023-04-20T19:26:54.969Z,9.70
2023-04-20T19:29:23.348Z,8.10
2023-04-20T19:31:51.877Z,9.90
2023-04-20T19:34:20.532Z,8.83
2023-04-20T19:36:49.115Z,10.00
2023-04-20T19:39:18.958Z,11.23
2023-04-20T19:41:47.654Z,9.77
2023-04-20T19:44:16.308Z,8.60
2023-04-20T19:46:44.804Z,10.53
2023-04-20T19:49:13.140Z,10.17
2023-04-20T19:51:41.577Z,10.23
2023-04-20T19:54:09.973Z,11.13
2023-04-20T19:56:39.723Z,10.80
2023-04-20T19:59:08.070Z,9.17
2023-04-20T20:01:36.543Z,10.47
2023-04-20T20:04:05.180Z,9.10
2023-04-20T20:06:33.761Z,10.60
2023-04-20T20:09:02.152Z,10.53
2023-04-20T20:11:30.628Z,8.93
2023-04-20T20:14:00.567Z,8.83
2023-04-20T20:16:29.324Z,9.97
2023-04-20T20:18:59.450Z,11.30
2023-04-20T20:21:28.013Z,10.57
2023-04-20T20:23:56.448Z,10.13
2023-04-20T20:26:24.824Z,12.17
2023-04-20T20:28:53.432Z,10.17
2023-04-20T20:31:23.321Z,9.37
2023-04-20T20:33:52.182Z,8.97
2023-04-20T20:36:20.621Z,8.07
2023-04-20T20:38:48.988Z,9.90
2023-04-20T20:41:18.408Z,9.57
2023-04-20T20:43:47.324Z,8.40
2023-04-20T20:46:15.833Z,11.03
2023-04-20T20:48:45.764Z,9.23
2023-04-20T20:51:16.251Z,10.23
2023-04-20T20:53:44.516Z,7.63
2023-04-20T20:56:13.064Z,9.40
2023-04-20T20:58:41.913Z,9.67
2023-04-20T21:01:10.544Z,10.33
2023-04-20T21:03:39.406Z,9.90
2023-04-20T21:06:09.787Z,8.20
2023-04-20T21:08:38.508Z,8.57
2023-04-20T21:11:07.071Z,9.77
2023-04-20T21:13:35.673Z,10.17
2023-04-20T21:16:04.547Z,34.33
2023-04-20T21:18:33.829Z,15.23
2023-04-20T21:21:02.443Z,12.10
2023-04-20T21:23:32.285Z,28.23
2023-04-20T21:26:00.892Z,9.13
2023-04-20T21:28:29.486Z,7.00
2023-04-20T21:30:58.101Z,11.43
2023-04-20T21:33:26.676Z,9.57
2023-04-20T21:35:57.690Z,12.07
2023-04-20T21:38:27.403Z,10.30
2023-04-20T21:40:57.483Z,9.43
2023-04-20T21:43:25.993Z,10.90
2023-04-20T21:45:54.495Z,10.57
2023-04-20T21:48:23.214Z,7.90
2023-04-20T21:50:51.612Z,13.60
2023-04-20T21:53:20.183Z,8.40
2023-04-20T21:55:48.812Z,11.87
2023-04-20T21:58:18.898Z,7.87
2023-04-20T22:00:47.397Z,12.33
2023-04-20T22:03:16.104Z,11.03
2023-04-20T22:05:44.650Z,16.57
2023-04-20T22:08:14.741Z,14.53
2023-04-20T22:10:43.325Z,17.90
2023-04-20T22:13:13.413Z,12.07
2023-04-20T22:15:43.421Z,11.90
2023-04-20T22:18:13.017Z,10.17
2023-04-20T22:20:41.599Z,10.73
2023-04-20T22:23:10.188Z,12.63
2023-04-20T22:25:38.988Z,12.73
2023-04-20T22:28:08.004Z,11.97
2023-04-20T22:30:36.782Z,10.33
2023-04-20T22:33:06.961Z,10.97
2023-04-20T22:35:35.809Z,11.07
2023-04-20T22:38:04.128Z,13.67
2023-04-20T22:40:32.595Z,9.93
2023-04-20T22:43:00.905Z,12.53
2023-04-20T22:45:29.198Z,12.00
2023-04-20T22:47:57.481Z,14.93
2023-04-20T22:50:27.498Z,15.43
2023-04-20T22:52:55.661Z,11.47
2023-04-20T22:55:24.249Z,11.27
2023-04-20T22:57:52.766Z,9.97
2023-04-20T23:00:21.604Z,12.57
2023-04-20T23:02:51.508Z,9.97
2023-04-20T23:05:21.182Z,21.03
2023-04-20T23:07:53.448Z,14.33
2023-04-20T23:10:22.424Z,13.00
2023-04-20T23:12:51.037Z,12.27
2023-04-20T23:15:19.610Z,16.73
2023-04-20T23:17:48.290Z,13.43
2023-04-20T23:20:17.272Z,16.57
2023-04-20T23:22:45.872Z,10.20
2023-04-20T23:25:15.748Z,12.93
2023-04-20T23:27:44.363Z,11.33
2023-04-20T23:30:13.786Z,13.27
2023-04-20T23:32:43.912Z,13.00
2023-04-20T23:35:13.311Z,12.93
2023-04-20T23:37:41.883Z,15.97
2023-04-20T23:40:11.544Z,13.60
2023-04-20T23:42:41.512Z,10.67
2023-04-20T23:45:11.298Z,12.67
2023-04-20T23:47:39.781Z,11.53
2023-04-20T23:50:10.105Z,10.27
2023-04-20T23:52:38.640Z,10.63
2023-04-20T23:55:07.837Z,15.20
2023-04-20T23:57:36.354Z,13.23
